Time;durP1;ratioP1;P1;durP2;ratioP2;P2;SDS_P1;SDS_P2;PMS_P1;PMS_P2;Temp;Humidity;BMP_temperature;BMP_pressure;BME280_temperature;BME280_humidity;BME280_pressure;Samples;Min_cycle;Max_cycle;Signal;HPM_P1;HPM_P2
2022/03/07 00:01:26;;;;;;;16.47;13.80;;;1.60;99.90;;;;;;4968914;28;20469;-77
2022/03/07 00:03:54;;;;;;;17.07;15.27;;;1.60;99.90;;;;;;4986204;28;20834;-77
2022/03/07 00:06:20;;;;;;;16.03;14.33;;;1.60;99.90;;;;;;4985422;28;20462;-76
2022/03/07 00:08:48;;;;;;;14.93;13.47;;;1.60;99.90;;;;;;4988192;28;20433;-76
2022/03/07 00:11:16;;;;;;;15.87;14.27;;;1.60;99.90;;;;;;4990906;28;20692;-77
2022/03/07 00:13:45;;;;;;;15.90;14.23;;;1.60;99.90;;;;;;4988410;28;20516;-75
2022/03/07 00:16:12;;;;;;;14.90;13.30;;;1.60;99.90;;;;;;4985506;28;20982;-77
2022/03/07 00:18:39;;;;;;;15.27;13.47;;;1.60;99.90;;;;;;4968164;28;20503;-77
2022/03/07 00:21:07;;;;;;;16.57;14.20;;;1.70;99.90;;;;;;4985941;28;20487;-77
2022/03/07 00:23:34;;;;;;;15.40;13.80;;;1.60;99.90;;;;;;4972280;28;20463;-77
2022/03/07 00:26:01;;;;;;;16.00;14.40;;;1.60;99.90;;;;;;4993566;28;20469;-77
2022/03/07 00:28:27;;;;;;;14.53;13.10;;;1.60;99.90;;;;;;4967825;28;20450;-77
2022/03/07 00:30:56;;;;;;;14.50;13.20;;;1.60;99.90;;;;;;4968052;28;20462;-77
2022/03/07 00:33:22;;;;;;;15.93;13.13;;;1.60;99.90;;;;;;4986329;28;20443;-76
2022/03/07 00:35:49;;;;;;;15.50;14.00;;;1.60;99.90;;;;;;4987615;28;21115;-76
2022/03/07 00:38:17;;;;;;;15.83;14.23;;;1.60;99.90;;;;;;4972260;28;20458;-77
2022/03/07 00:40:44;;;;;;;15.70;13.90;;;1.60;99.90;;;;;;4968376;28;20480;-77
2022/03/07 00:43:11;;;;;;;15.67;14.17;;;1.50;99.90;;;;;;4972623;28;20452;-77
2022/03/07 00:45:40;;;;;;;15.40;13.53;;;1.60;99.90;;;;;;4969675;28;20457;-77
2022/03/07 00:48:08;;;;;;;14.87;13.37;;;1.60;99.90;;;;;;4971880;28;20498;-77
2022/03/07 00:50:35;;;;;;;14.83;13.33;;;1.60;99.90;;;;;;4968099;28;20447;-77
2022/03/07 00:53:02;;;;;;;14.73;13.33;;;1.50;99.90;;;;;;4967892;28;20471;-77
2022/03/07 00:55:29;;;;;;;16.40;14.70;;;1.50;99.90;;;;;;4966136;28;20480;-77
2022/03/07 00:57:57;;;;;;;16.13;14.53;;;1.50;99.90;;;;;;4971325;28;20516;-76
2022/03/07 01:00:24;;;;;;;15.60;13.97;;;1.50;99.90;;;;;;4967407;28;20454;-77
2022/03/07 01:02:51;;;;;;;18.43;13.97;;;1.40;99.90;;;;;;4968055;28;20448;-77
2022/03/07 01:05:20;;;;;;;15.37;13.77;;;1.40;99.90;;;;;;4970558;28;20512;-77
2022/03/07 01:07:47;;;;;;;15.93;14.10;;;1.40;99.90;;;;;;4966743;28;20471;-78
2022/03/07 01:10:14;;;;;;;16.23;14.53;;;1.40;99.90;;;;;;4967788;28;20442;-77
2022/03/07 01:12:41;;;;;;;16.87;15.03;;;1.30;99.90;;;;;;4987873;28;20934;-77
2022/03/07 01:15:09;;;;;;;16.20;14.50;;;1.40;99.90;;;;;;4972253;28;20459;-77
2022/03/07 01:17:36;;;;;;;15.67;14.07;;;1.30;99.90;;;;;;4967849;28;20827;-77
2022/03/07 01:20:05;;;;;;;16.03;14.33;;;1.30;99.90;;;;;;4967697;28;20874;-76
2022/03/07 01:22:34;;;;;;;15.03;13.63;;;1.30;99.90;;;;;;4967397;28;20477;-77
2022/03/07 01:25:02;;;;;;;15.23;13.73;;;1.20;99.90;;;;;;4967560;28;20455;-77
2022/03/07 01:27:29;;;;;;;15.73;14.20;;;1.20;99.90;;;;;;4963363;28;20817;-77
2022/03/07 01:29:56;;;;;;;14.97;13.47;;;1.20;99.90;;;;;;4967611;28;20455;-76
2022/03/07 01:32:23;;;;;;;14.50;13.03;;;1.20;99.90;;;;;;4972110;28;20965;-77
2022/03/07 01:34:50;;;;;;;14.70;13.30;;;1.10;99.90;;;;;;4970306;28;20460;-76
2022/03/07 01:37:18;;;;;;;14.63;13.23;;;1.10;99.90;;;;;;4983627;28;20860;-77
2022/03/07 01:39:46;;;;;;;14.07;12.77;;;1.10;99.90;;;;;;4967341;28;21135;-76
2022/03/07 01:42:13;;;;;;;13.10;11.90;;;1.10;99.90;;;;;;4966715;28;20478;-77
2022/03/07 01:44:40;;;;;;;14.27;12.77;;;1.10;99.90;;;;;;4987174;28;20439;-77
2022/03/07 01:47:08;;;;;;;16.43;12.37;;;1.10;99.90;;;;;;4971364;28;20485;-76
2022/03/07 01:49:35;;;;;;;14.30;13.00;;;1.10;99.90;;;;;;4974943;28;20449;-76
2022/03/07 01:52:02;;;;;;;13.90;11.80;;;1.10;99.90;;;;;;4970610;28;20962;-77
2022/03/07 01:54:31;;;;;;;14.23;12.60;;;1.10;99.90;;;;;;4967433;28;20454;-77
2022/03/07 01:57:00;;;;;;;14.57;13.07;;;1.10;99.90;;;;;;4965866;28;21028;-77
2022/03/07 01:59:29;;;;;;;14.27;12.87;;;1.00;99.90;;;;;;4967148;28;20439;-77
2022/03/07 02:01:58;;;;;;;14.83;12.83;;;1.00;99.90;;;;;;4967878;28;20913;-77
2022/03/07 02:04:25;;;;;;;13.83;12.53;;;1.00;99.90;;;;;;4966495;28;20484;-76
2022/03/07 02:06:53;;;;;;;13.50;12.17;;;0.90;99.90;;;;;;4972340;28;20572;-77
2022/03/07 02:09:21;;;;;;;13.27;11.97;;;1.00;99.90;;;;;;4984258;28;20435;-76
2022/03/07 02:11:47;;;;;;;13.43;12.23;;;1.00;99.90;;;;;;4988304;28;20484;-77
2022/03/07 02:14:22;;;;;;;12.83;11.63;;;0.90;99.90;;;;;;4966734;28;20534;-77
2022/03/07 02:16:53;;;;;;;13.37;12.07;;;0.90;99.90;;;;;;4997281;23;20481;-76
2022/03/07 02:19:20;;;;;;;13.60;12.27;;;0.80;99.90;;;;;;4972899;28;20464;-77
2022/03/07 02:21:49;;;;;;;14.63;12.30;;;0.70;99.90;;;;;;4970402;28;20466;-76
2022/03/07 02:24:34;;;;;;;12.63;11.43;;;0.70;99.90;;;;;;4986021;28;20437;-78
2022/03/07 02:27:08;;;;;;;13.47;12.27;;;0.70;99.90;;;;;;4952632;28;21056;-76
2022/03/07 02:29:35;;;;;;;13.20;11.90;;;0.70;99.90;;;;;;4963753;28;20545;-78
2022/03/07 02:32:08;;;;;;;13.70;12.17;;;0.70;99.90;;;;;;4987462;28;20440;-77
2022/03/07 02:34:40;;;;;;;13.03;11.83;;;0.70;99.90;;;;;;4985371;28;20453;-77
2022/03/07 02:37:09;;;;;;;13.57;12.17;;;0.60;99.90;;;;;;4979967;28;20485;-77
2022/03/07 02:39:48;;;;;;;12.80;11.50;;;0.60;99.90;;;;;;4985766;28;20454;-77
2022/03/07 02:42:15;;;;;;;13.50;12.10;;;0.60;99.90;;;;;;4965343;28;20504;-77
2022/03/07 02:44:43;;;;;;;14.10;12.23;;;0.60;99.90;;;;;;4982836;28;20436;-76
2022/03/07 02:47:13;;;;;;;12.80;11.70;;;0.60;99.90;;;;;;4981224;28;20895;-77
2022/03/07 02:49:40;;;;;;;13.90;12.20;;;0.60;99.90;;;;;;4965771;28;20437;-77
2022/03/07 02:52:08;;;;;;;13.53;12.33;;;0.50;99.90;;;;;;4967285;28;20530;-77
2022/03/07 02:54:35;;;;;;;13.30;12.10;;;0.50;99.90;;;;;;4981999;28;20444;-77
2022/03/07 02:57:03;;;;;;;13.67;12.37;;;0.50;99.90;;;;;;4982631;28;20461;-77
2022/03/07 02:59:30;;;;;;;12.97;11.77;;;0.50;99.90;;;;;;4977245;28;20437;-77
2022/03/07 03:01:57;;;;;;;13.10;11.73;;;0.50;99.90;;;;;;4968745;28;20457;-77
2022/03/07 03:04:24;;;;;;;13.80;12.53;;;0.50;99.90;;;;;;4986170;28;20838;-77
2022/03/07 03:06:50;;;;;;;13.80;12.53;;;0.50;99.90;;;;;;4984156;28;20453;-77
2022/03/07 03:09:17;;;;;;;13.83;12.43;;;0.40;99.90;;;;;;4972281;28;20542;-77
2022/03/07 03:11:44;;;;;;;14.27;12.77;;;0.40;99.90;;;;;;4986480;28;20460;-76
2022/03/07 03:14:12;;;;;;;13.97;12.57;;;0.40;99.90;;;;;;4984052;28;20437;-76
2022/03/07 03:16:39;;;;;;;13.70;12.30;;;0.40;99.90;;;;;;4985002;28;20469;-76
2022/03/07 03:19:06;;;;;;;13.13;11.97;;;0.30;99.90;;;;;;4968952;28;20505;-78
2022/03/07 03:21:33;;;;;;;13.47;12.17;;;0.30;99.90;;;;;;4977139;28;20469;-78
2022/03/07 03:24:00;;;;;;;15.60;12.70;;;0.30;99.90;;;;;;4986199;28;20445;-77
2022/03/07 03:26:26;;;;;;;13.60;12.30;;;0.30;99.90;;;;;;4989311;28;20472;-77
2022/03/07 03:28:53;;;;;;;13.20;11.97;;;0.30;99.90;;;;;;4987908;28;20483;-78
2022/03/07 03:31:21;;;;;;;13.00;11.80;;;0.20;99.90;;;;;;4965995;28;20460;-76
2022/03/07 03:33:49;;;;;;;13.17;11.90;;;0.20;99.90;;;;;;4985120;28;20508;-79
2022/03/07 03:36:16;;;;;;;13.00;11.63;;;0.10;99.90;;;;;;4973515;28;20457;-78
2022/03/07 03:38:43;;;;;;;13.00;11.87;;;0.10;99.90;;;;;;4986076;28;20437;-79
2022/03/07 03:41:10;;;;;;;13.83;12.53;;;0.10;99.90;;;;;;4972685;28;20453;-82
2022/03/07 03:43:37;;;;;;;13.33;12.10;;;0.00;99.90;;;;;;4970288;28;20459;-79
2022/03/07 03:46:04;;;;;;;13.07;11.77;;;0.00;99.90;;;;;;4971514;28;20446;-79
2022/03/07 03:48:32;;;;;;;13.63;12.23;;;0.00;99.90;;;;;;4973245;28;20465;-79
2022/03/07 03:50:59;;;;;;;14.07;12.60;;;-0.10;99.90;;;;;;4986161;28;20492;-79
2022/03/07 03:53:26;;;;;;;14.13;12.67;;;-0.10;99.90;;;;;;4980915;28;20438;-79
2022/03/07 03:55:53;;;;;;;14.00;12.63;;;-0.20;99.90;;;;;;4969830;28;20512;-79
2022/03/07 03:58:20;;;;;;;14.63;13.03;;;-0.20;99.90;;;;;;4973924;28;20530;-79
2022/03/07 04:00:46;;;;;;;15.40;13.13;;;-0.30;99.90;;;;;;4986810;28;20445;-78
2022/03/07 04:03:13;;;;;;;13.43;12.13;;;-0.30;99.90;;;;;;4978592;28;20492;-77
2022/03/07 04:05:41;;;;;;;13.83;12.43;;;-0.40;99.90;;;;;;4968256;28;20449;-80
2022/03/07 04:08:08;;;;;;;14.97;13.47;;;-0.40;99.90;;;;;;4963415;28;20465;-78
2022/03/07 04:10:35;;;;;;;14.53;13.00;;;-0.40;99.90;;;;;;4978853;28;20456;-78
2022/03/07 04:13:02;;;;;;;14.20;12.90;;;-0.50;99.90;;;;;;4962102;28;20457;-80
2022/03/07 04:15:29;;;;;;;16.03;13.70;;;-0.50;99.90;;;;;;4981959;28;20540;-78
2022/03/07 04:17:55;;;;;;;15.40;13.50;;;-0.50;99.90;;;;;;4971330;28;20514;-82
2022/03/07 04:20:22;;;;;;;15.50;13.87;;;-0.60;99.90;;;;;;4975467;28;20462;-77
2022/03/07 04:22:52;;;;;;;15.17;13.63;;;-0.60;99.90;;;;;;4962810;28;20503;-80
2022/03/07 04:25:19;;;;;;;14.03;12.63;;;-0.70;99.90;;;;;;4986210;28;20454;-78
2022/03/07 04:27:46;;;;;;;14.60;13.10;;;-0.70;99.90;;;;;;4982938;28;20887;-78
2022/03/07 04:30:13;;;;;;;15.17;13.57;;;-0.70;99.90;;;;;;4986021;28;20448;-76
2022/03/07 04:32:40;;;;;;;13.83;12.53;;;-0.70;99.90;;;;;;4964581;28;20839;-77
2022/03/07 04:35:09;;;;;;;13.20;12.03;;;-0.70;99.90;;;;;;4971801;28;20469;-77
2022/03/07 04:37:39;;;;;;;13.93;12.63;;;-0.80;99.90;;;;;;4978111;28;20470;-77
2022/03/07 04:40:09;;;;;;;14.23;12.83;;;-0.80;99.90;;;;;;4967366;28;20449;-75
2022/03/07 04:42:36;;;;;;;14.77;13.27;;;-0.80;99.90;;;;;;4976694;28;20549;-76
2022/03/07 04:45:03;;;;;;;14.17;12.67;;;-0.90;99.90;;;;;;4984937;28;20434;-78
2022/03/07 04:47:30;;;;;;;13.37;11.97;;;-0.90;99.90;;;;;;4968870;28;20481;-77
2022/03/07 04:49:56;;;;;;;14.03;12.33;;;-1.00;99.90;;;;;;4971581;28;20456;-77
2022/03/07 04:52:23;;;;;;;13.17;11.80;;;-1.00;99.90;;;;;;4981353;28;20471;-77
2022/03/07 04:54:50;;;;;;;14.03;12.63;;;-1.10;99.90;;;;;;4984066;28;20442;-78
2022/03/07 04:57:18;;;;;;;14.03;12.73;;;-1.10;99.90;;;;;;4984564;28;20520;-77
2022/03/07 04:59:45;;;;;;;13.70;12.30;;;-1.10;99.90;;;;;;4979375;28;20441;-76
2022/03/07 05:02:13;;;;;;;14.13;12.77;;;-1.10;99.90;;;;;;4969595;28;20569;-80
2022/03/07 05:04:40;;;;;;;15.20;13.67;;;-1.20;99.90;;;;;;4983307;28;20440;-78
2022/03/07 05:07:07;;;;;;;15.10;13.60;;;-1.20;99.90;;;;;;4964634;28;20469;-77
2022/03/07 05:09:34;;;;;;;14.07;12.30;;;-1.20;99.90;;;;;;4987045;28;20869;-78
2022/03/07 05:12:02;;;;;;;14.77;13.03;;;-1.20;99.90;;;;;;4968687;28;20464;-77
2022/03/07 05:14:30;;;;;;;15.27;13.53;;;-1.30;99.90;;;;;;4987729;28;20436;-78
2022/03/07 05:16:57;;;;;;;13.90;12.60;;;-1.30;99.90;;;;;;4967350;28;20485;-76
2022/03/07 05:19:24;;;;;;;15.30;13.77;;;-1.30;99.90;;;;;;4989077;28;20861;-77
2022/03/07 05:21:51;;;;;;;14.20;12.90;;;-1.30;99.90;;;;;;4964345;28;20461;-77
2022/03/07 05:24:18;;;;;;;14.57;13.03;;;-1.40;99.90;;;;;;4964643;28;20457;-77
2022/03/07 05:26:45;;;;;;;15.50;13.97;;;-1.40;99.90;;;;;;4961093;28;20476;-77
2022/03/07 05:29:11;;;;;;;15.53;13.53;;;-1.40;99.90;;;;;;4983256;28;20497;-77
2022/03/07 05:31:40;;;;;;;15.27;13.83;;;-1.40;99.90;;;;;;4984460;28;20544;-77
2022/03/07 05:34:06;;;;;;;15.50;14.00;;;-1.40;99.90;;;;;;4988938;28;20859;-76
2022/03/07 05:36:33;;;;;;;16.90;15.03;;;-1.50;99.90;;;;;;4968531;28;20480;-77
2022/03/07 05:39:00;;;;;;;15.37;13.83;;;-1.50;99.90;;;;;;4983692;28;20450;-77
2022/03/07 05:41:27;;;;;;;15.80;14.20;;;-1.50;99.90;;;;;;4972874;28;20449;-77
2022/03/07 05:43:54;;;;;;;16.23;14.53;;;-1.50;99.90;;;;;;4986123;28;20903;-77
2022/03/07 05:46:21;;;;;;;19.13;15.10;;;-1.60;99.90;;;;;;4986477;28;20440;-77
2022/03/07 05:48:49;;;;;;;17.87;14.33;;;-1.60;99.90;;;;;;4979467;28;20470;-77
2022/03/07 05:51:22;;;;;;;15.83;14.20;;;-1.60;99.90;;;;;;4991326;28;20795;-78
2022/03/07 05:53:49;;;;;;;15.87;14.27;;;-1.60;99.90;;;;;;4982119;28;20446;-78
2022/03/07 05:56:16;;;;;;;16.60;14.90;;;-1.70;99.90;;;;;;4988471;28;20440;-78
2022/03/07 05:58:43;;;;;;;15.67;14.00;;;-1.70;99.90;;;;;;4987083;28;20471;-78
2022/03/07 06:01:09;;;;;;;15.43;13.77;;;-1.70;99.90;;;;;;4986979;28;20433;-78
2022/03/07 06:03:36;;;;;;;16.13;14.43;;;-1.70;99.90;;;;;;4986210;28;20484;-78
2022/03/07 06:06:05;;;;;;;16.53;14.83;;;-1.70;99.90;;;;;;4988491;28;20858;-78
2022/03/07 06:08:32;;;;;;;16.33;14.63;;;-1.70;99.90;;;;;;4983913;28;20468;-78
2022/03/07 06:10:59;;;;;;;16.83;14.67;;;-1.60;99.90;;;;;;4984320;28;20453;-78
2022/03/07 06:13:25;;;;;;;17.40;15.60;;;-1.60;99.90;;;;;;4969863;28;20465;-77
2022/03/07 06:15:52;;;;;;;16.47;14.80;;;-1.60;99.90;;;;;;4987482;28;20438;-78
2022/03/07 06:18:19;;;;;;;16.33;14.70;;;-1.50;99.90;;;;;;4987540;28;20507;-78
2022/03/07 06:20:46;;;;;;;17.43;15.10;;;-1.50;99.90;;;;;;4989442;28;20504;-78
2022/03/07 06:23:14;;;;;;;16.80;15.13;;;-1.50;99.90;;;;;;4972959;28;20481;-79
2022/03/07 06:25:41;;;;;;;18.07;15.37;;;-1.40;99.90;;;;;;4974528;28;20457;-78
2022/03/07 06:28:09;;;;;;;18.27;16.33;;;-1.40;99.90;;;;;;4998930;28;20459;-78
2022/03/07 06:30:35;;;;;;;17.37;15.47;;;-1.30;99.90;;;;;;4998670;28;20441;-79
2022/03/07 06:33:02;;;;;;;16.70;14.90;;;-1.30;99.90;;;;;;4975596;28;20449;-78
2022/03/07 06:35:29;;;;;;;17.70;15.83;;;-1.20;99.90;;;;;;5001083;28;20448;-78
2022/03/07 06:37:56;;;;;;;16.80;14.83;;;-1.00;99.90;;;;;;4989734;28;20882;-79
2022/03/07 06:40:26;;;;;;;23.03;16.80;;;-0.90;99.90;;;;;;4994093;28;20440;-77
2022/03/07 06:42:53;;;;;;;16.63;14.90;;;-0.60;99.90;;;;;;4992704;28;20479;-78
2022/03/07 06:45:20;;;;;;;20.87;16.53;;;-0.40;99.90;;;;;;4976727;28;20452;-78
2022/03/07 06:47:48;;;;;;;17.17;15.13;;;-0.20;99.90;;;;;;4971333;28;20476;-78
2022/03/07 06:50:16;;;;;;;18.00;16.10;;;0.00;99.90;;;;;;4992272;28;20428;-78
2022/03/07 06:52:42;;;;;;;17.80;15.97;;;0.10;99.90;;;;;;4992808;28;20437;-77
2022/03/07 06:55:10;;;;;;;16.97;15.20;;;0.30;99.90;;;;;;4989004;28;20437;-77
2022/03/07 06:57:40;;;;;;;19.07;16.80;;;0.50;99.90;;;;;;4993744;28;20465;-79
2022/03/07 07:00:09;;;;;;;17.67;15.83;;;0.60;99.90;;;;;;4985545;28;20907;-79
2022/03/07 07:02:36;;;;;;;17.77;15.87;;;0.70;99.90;;;;;;4994643;28;20476;-79
2022/03/07 07:05:04;;;;;;;27.70;20.87;;;0.80;99.90;;;;;;4990406;28;20513;-78
2022/03/07 07:07:32;;;;;;;19.03;16.60;;;0.90;99.90;;;;;;4980278;28;20485;-78
2022/03/07 07:09:59;;;;;;;18.20;16.27;;;1.10;99.90;;;;;;4973550;28;20469;-80
2022/03/07 07:12:26;;;;;;;19.47;16.53;;;1.20;99.90;;;;;;4993512;28;20490;-79
2022/03/07 07:14:54;;;;;;;17.83;16.03;;;1.30;99.90;;;;;;4973638;28;20451;-78
2022/03/07 07:17:21;;;;;;;18.93;16.17;;;1.50;99.90;;;;;;4983849;28;20483;-78
2022/03/07 07:19:48;;;;;;;17.27;15.60;;;1.50;99.90;;;;;;4990512;28;20492;-78
2022/03/07 07:22:15;;;;;;;17.80;15.97;;;1.50;99.90;;;;;;4990365;28;20444;-80
2022/03/07 07:24:42;;;;;;;19.23;16.47;;;1.40;99.90;;;;;;4986337;28;20570;-78
2022/03/07 07:27:09;;;;;;;17.37;15.63;;;1.40;99.90;;;;;;4990241;28;20511;-78
2022/03/07 07:29:36;;;;;;;17.10;15.40;;;1.20;99.90;;;;;;4975778;28;20946;-79
2022/03/07 07:32:05;;;;;;;18.50;15.70;;;1.20;99.90;;;;;;4981065;28;20479;-78
2022/03/07 07:34:32;;;;;;;18.53;15.80;;;1.30;99.90;;;;;;4989160;28;20500;-77
2022/03/07 07:36:59;;;;;;;17.43;15.63;;;1.50;99.90;;;;;;4989420;28;20472;-79
2022/03/07 07:39:25;;;;;;;17.13;15.30;;;1.50;99.90;;;;;;4974723;28;20458;-79
2022/03/07 07:41:52;;;;;;;17.03;15.33;;;1.50;99.90;;;;;;4986781;28;20439;-78
2022/03/07 07:44:19;;;;;;;17.40;15.50;;;1.70;99.90;;;;;;4986148;28;20542;-78
2022/03/07 07:46:46;;;;;;;18.10;15.73;;;1.90;99.90;;;;;;4984390;28;20460;-78
2022/03/07 07:49:14;;;;;;;20.33;16.10;;;2.30;99.90;;;;;;4982195;28;20441;-79
2022/03/07 07:51:41;;;;;;;18.13;16.23;;;2.70;99.90;;;;;;4990539;28;20209;-78
2022/03/07 07:54:08;;;;;;;17.90;15.93;;;3.00;99.90;;;;;;4986274;28;20260;-78
2022/03/07 07:56:35;;;;;;;17.23;15.43;;;3.20;99.90;;;;;;4988235;28;20224;-79
2022/03/07 07:59:02;;;;;;;16.57;14.87;;;3.40;99.90;;;;;;4987381;28;20264;-78
2022/03/07 08:01:29;;;;;;;18.07;16.23;;;3.70;99.90;;;;;;4984368;28;20195;-79
2022/03/07 08:03:56;;;;;;;17.83;15.93;;;4.00;99.90;;;;;;4971118;28;20384;-79
2022/03/07 08:06:25;;;;;;;17.40;15.47;;;3.90;99.90;;;;;;4983470;28;20284;-78
2022/03/07 08:08:52;;;;;;;17.07;15.47;;;4.30;99.90;;;;;;4985260;28;20202;-78
2022/03/07 08:11:18;;;;;;;16.60;15.10;;;4.60;99.90;;;;;;4986402;28;20653;-79
2022/03/07 08:13:45;;;;;;;17.70;15.83;;;4.70;99.90;;;;;;4985412;28;20254;-78
2022/03/07 08:16:12;;;;;;;18.27;15.57;;;4.70;99.90;;;;;;4977115;28;20264;-78
2022/03/07 08:18:39;;;;;;;17.40;15.80;;;4.90;99.90;;;;;;5015798;23;20248;-77
2022/03/07 08:21:06;;;;;;;17.63;15.80;;;4.70;99.90;;;;;;4998978;28;20240;-78
2022/03/07 08:23:34;;;;;;;16.57;14.97;;;4.60;99.90;;;;;;4999195;28;20221;-78
2022/03/07 08:26:01;;;;;;;16.57;14.87;;;4.60;99.90;;;;;;4981598;28;20196;-78
2022/03/07 08:28:27;;;;;;;16.43;14.80;;;4.70;99.90;;;;;;4968236;28;20221;-78
2022/03/07 08:30:54;;;;;;;17.47;15.67;;;4.70;99.90;;;;;;5001183;28;20197;-78
2022/03/07 08:33:21;;;;;;;17.17;15.37;;;5.00;99.90;;;;;;4993902;28;20679;-78
2022/03/07 08:35:49;;;;;;;16.77;15.17;;;5.50;99.90;;;;;;4976692;28;20252;-78
2022/03/07 08:38:16;;;;;;;16.10;14.47;;;5.80;99.90;;;;;;4975791;28;20222;-78
2022/03/07 08:40:44;;;;;;;15.70;14.10;;;5.90;99.90;;;;;;4976651;28;20611;-78
2022/03/07 08:43:11;;;;;;;15.27;13.77;;;5.80;99.90;;;;;;4994330;28;21065;-78
2022/03/07 08:45:38;;;;;;;16.13;14.43;;;5.90;99.90;;;;;;4994117;28;20207;-77
2022/03/07 08:48:05;;;;;;;15.10;11.33;;;5.90;99.90;;;;;;4976458;28;20680;-77
2022/03/07 08:50:32;;;;;;;17.93;13.13;;;5.90;99.90;;;;;;4994058;28;20190;-79
2022/03/07 08:52:59;;;;;;;15.30;11.83;;;5.80;99.90;;;;;;4992085;28;20207;-78
2022/03/07 08:55:26;;;;;;;16.30;14.70;;;5.40;99.90;;;;;;4993496;28;20194;-78
2022/03/07 08:57:54;;;;;;;16.33;14.63;;;5.20;99.90;;;;;;4993276;28;20235;-78
2022/03/07 09:00:21;;;;;;;16.70;15.00;;;5.10;99.90;;;;;;4993588;28;20202;-78
2022/03/07 09:02:48;;;;;;;13.70;11.33;;;5.20;99.90;;;;;;4993632;28;20362;-78
2022/03/07 09:05:15;;;;;;;14.47;12.93;;;5.10;99.90;;;;;;4996640;28;20225;-78
2022/03/07 09:07:42;;;;;;;16.07;12.20;;;5.00;99.90;;;;;;4968810;28;20248;-78
2022/03/07 09:10:10;;;;;;;16.40;14.80;;;4.60;99.90;;;;;;4971105;28;20210;-78
2022/03/07 09:12:37;;;;;;;16.27;14.73;;;4.60;99.90;;;;;;4993442;28;20269;-78
2022/03/07 09:15:07;;;;;;;16.90;15.07;;;4.60;99.90;;;;;;4993931;28;20194;-78
2022/03/07 09:17:34;;;;;;;17.47;15.87;;;4.40;99.90;;;;;;4975208;28;20774;-78
2022/03/07 09:20:00;;;;;;;17.50;15.63;;;4.00;99.90;;;;;;4976036;28;20209;-79
2022/03/07 09:22:27;;;;;;;13.03;10.93;;;4.00;99.90;;;;;;4993236;28;20194;-78
2022/03/07 09:24:54;;;;;;;13.33;10.43;;;4.30;99.90;;;;;;4993399;28;20209;-78
2022/03/07 09:27:21;;;;;;;14.57;11.43;;;4.30;99.90;;;;;;4992531;28;20284;-78
2022/03/07 09:29:48;;;;;;;12.80;10.70;;;4.70;99.90;;;;;;4992940;28;20651;-78
2022/03/07 09:32:16;;;;;;;16.13;14.43;;;5.10;99.90;;;;;;4975692;28;20204;-78
2022/03/07 09:34:43;;;;;;;16.93;15.23;;;5.00;99.90;;;;;;4975696;28;20201;-78
2022/03/07 09:37:10;;;;;;;15.97;13.77;;;5.00;99.90;;;;;;4992042;28;20225;-78
2022/03/07 09:39:37;;;;;;;16.17;14.53;;;4.80;99.90;;;;;;4975856;28;20193;-78
2022/03/07 09:42:05;;;;;;;17.13;15.43;;;4.50;99.90;;;;;;4975189;28;20252;-78
2022/03/07 09:44:32;;;;;;;14.27;12.43;;;4.20;99.90;;;;;;4992972;28;20228;-78
2022/03/07 09:47:00;;;;;;;17.00;15.23;;;4.30;99.90;;;;;;4990822;28;20209;-78
2022/03/07 09:49:29;;;;;;;13.87;11.57;;;4.60;99.90;;;;;;4992685;28;20230;-79
2022/03/07 09:51:56;;;;;;;18.20;16.27;;;4.50;99.90;;;;;;4992768;28;20200;-78
2022/03/07 09:54:24;;;;;;;13.70;12.10;;;4.30;99.90;;;;;;4970985;28;20209;-78
2022/03/07 09:56:51;;;;;;;12.53;10.80;;;4.60;99.90;;;;;;4992063;28;20264;-78
2022/03/07 09:59:19;;;;;;;15.67;14.27;;;4.80;99.90;;;;;;4992364;28;20243;-78
2022/03/07 10:01:59;;;;;;;15.80;14.27;;;4.90;99.90;;;;;;4975155;28;20670;-78
2022/03/07 10:04:26;;;;;;;15.33;13.73;;;5.00;99.90;;;;;;4974367;28;20597;-78
2022/03/07 10:06:54;;;;;;;15.37;13.77;;;5.20;99.90;;;;;;4974479;28;20204;-78
2022/03/07 10:09:22;;;;;;;15.83;14.23;;;5.40;99.90;;;;;;4975406;28;20248;-78
2022/03/07 10:11:55;;;;;;;15.50;14.00;;;5.50;99.70;;;;;;4975094;28;20217;-78
2022/03/07 10:14:44;;;;;;;17.40;14.70;;;5.50;99.90;;;;;;4992711;28;20197;-78
2022/03/07 10:17:20;;;;;;;15.67;14.13;;;5.50;99.80;;;;;;4991830;28;20323;-78
2022/03/07 10:19:48;;;;;;;17.83;13.93;;;5.40;99.30;;;;;;4992630;28;20259;-78
2022/03/07 10:22:21;;;;;;;16.23;13.67;;;5.10;99.40;;;;;;4982613;28;20201;-78
2022/03/07 10:24:57;;;;;;;15.90;14.30;;;5.10;99.60;;;;;;4992611;28;20204;-78
2022/03/07 10:27:28;;;;;;;15.43;13.33;;;4.70;99.80;;;;;;4991890;28;20217;-78
2022/03/07 10:29:54;;;;;;;15.23;13.63;;;4.50;99.90;;;;;;4992503;28;20241;-78
2022/03/07 10:32:22;;;;;;;16.07;14.37;;;4.60;99.90;;;;;;4992104;28;20570;-78
2022/03/07 10:34:49;;;;;;;14.33;12.83;;;4.30;99.90;;;;;;4992291;28;20685;-78
2022/03/07 10:37:17;;;;;;;14.30;13.00;;;4.50;99.90;;;;;;4974420;28;20602;-78
2022/03/07 10:39:48;;;;;;;14.77;13.23;;;4.60;99.90;;;;;;4992321;28;20263;-78
2022/03/07 10:42:18;;;;;;;16.23;14.53;;;4.60;99.90;;;;;;4992452;28;20211;-78
2022/03/07 10:44:46;;;;;;;15.00;13.50;;;4.70;99.90;;;;;;4975048;28;20213;-78
2022/03/07 10:47:14;;;;;;;16.23;14.20;;;4.70;99.90;;;;;;4992160;28;20221;-78
2022/03/07 10:49:50;;;;;;;15.87;13.90;;;4.50;99.80;;;;;;4974927;28;20206;-78
2022/03/07 10:52:19;;;;;;;14.53;13.00;;;4.50;99.90;;;;;;4991937;28;20201;-79
2022/03/07 10:54:47;;;;;;;15.03;13.30;;;4.50;99.90;;;;;;4974895;28;20197;-78
2022/03/07 10:57:14;;;;;;;15.33;13.73;;;4.50;99.90;;;;;;4974528;28;20252;-78
2022/03/07 10:59:41;;;;;;;16.03;14.37;;;4.60;99.90;;;;;;4992640;28;20198;-78
2022/03/07 11:02:10;;;;;;;16.27;14.10;;;4.70;99.90;;;;;;4991957;28;20201;-78
2022/03/07 11:04:38;;;;;;;13.83;12.47;;;4.70;99.90;;;;;;4974601;28;20308;-78
2022/03/07 11:07:06;;;;;;;14.97;13.47;;;4.70;99.80;;;;;;4973911;28;20225;-78
2022/03/07 11:09:34;;;;;;;15.53;13.57;;;4.60;99.30;;;;;;4974750;28;20268;-78
2022/03/07 11:12:01;;;;;;;14.50;13.00;;;4.50;99.30;;;;;;4974846;28;20212;-78
2022/03/07 11:14:28;;;;;;;15.00;13.43;;;4.60;99.70;;;;;;4961474;28;20261;-78
2022/03/07 11:16:57;;;;;;;14.70;13.30;;;4.70;99.60;;;;;;4995263;28;20225;-77
2022/03/07 11:19:24;;;;;;;15.73;13.53;;;4.70;99.70;;;;;;4995850;28;20186;-79
2022/03/07 11:21:52;;;;;;;15.17;13.63;;;4.70;99.90;;;;;;4996241;28;20260;-78
2022/03/07 11:24:20;;;;;;;15.67;13.93;;;4.60;99.40;;;;;;4995554;28;20682;-78
2022/03/07 11:26:51;;;;;;;14.70;13.30;;;4.60;98.80;;;;;;4970420;28;20663;-78
2022/03/07 11:29:18;;;;;;;15.37;13.87;;;4.50;99.10;;;;;;4995979;28;20643;-78
2022/03/07 11:31:45;;;;;;;17.17;15.40;;;4.60;99.60;;;;;;4995611;28;20205;-78
2022/03/07 11:34:13;;;;;;;15.83;14.30;;;4.70;98.70;;;;;;4978147;28;20232;-78
2022/03/07 11:36:44;;;;;;;15.80;14.40;;;4.70;98.90;;;;;;4977530;28;20692;-79
2022/03/07 11:39:11;;;;;;;14.93;13.43;;;4.70;98.70;;;;;;4995521;28;20220;-78
2022/03/07 11:41:40;;;;;;;15.30;13.90;;;4.80;99.40;;;;;;4978539;28;20547;-78
2022/03/07 11:44:10;;;;;;;14.93;13.53;;;4.90;98.80;;;;;;4995324;28;20214;-78
2022/03/07 11:46:39;;;;;;;15.67;13.93;;;4.90;98.90;;;;;;4994511;28;20194;-78
2022/03/07 11:49:08;;;;;;;15.43;12.70;;;5.00;98.90;;;;;;4990525;28;20671;-77
2022/03/07 11:51:37;;;;;;;14.03;12.63;;;4.90;98.90;;;;;;4995082;28;20193;-79
2022/03/07 11:54:05;;;;;;;15.53;13.80;;;5.00;99.20;;;;;;4977401;28;20583;-79
2022/03/07 11:56:35;;;;;;;15.73;14.13;;;5.10;98.70;;;;;;4977378;28;20256;-78
2022/03/07 11:59:04;;;;;;;14.27;12.50;;;4.90;98.40;;;;;;4995173;28;20208;-79
2022/03/07 12:01:34;;;;;;;14.70;13.30;;;4.90;98.40;;;;;;4977466;28;20257;-79
2022/03/07 12:04:09;;;;;;;14.87;13.37;;;4.90;98.50;;;;;;4994982;28;20216;-78
2022/03/07 12:06:43;;;;;;;16.40;14.07;;;5.10;99.20;;;;;;4987052;28;20197;-78
2022/03/07 12:09:09;;;;;;;17.97;14.50;;;5.20;98.10;;;;;;4977230;28;20235;-78
2022/03/07 12:11:38;;;;;;;15.73;13.67;;;5.10;97.50;;;;;;4995255;28;20293;-77
2022/03/07 12:14:08;;;;;;;14.20;12.80;;;4.90;97.80;;;;;;4991940;28;20279;-78
2022/03/07 12:16:40;;;;;;;14.80;12.77;;;4.90;98.60;;;;;;4993950;28;20217;-78
2022/03/07 12:19:11;;;;;;;15.27;13.27;;;5.10;99.10;;;;;;4994866;28;20202;-77
2022/03/07 12:21:41;;;;;;;15.53;13.90;;;5.10;98.20;;;;;;4977263;28;20202;-79
2022/03/07 12:24:09;;;;;;;14.50;13.13;;;5.20;97.90;;;;;;4995058;28;20633;-78
2022/03/07 12:26:44;;;;;;;16.43;14.73;;;5.30;98.00;;;;;;4975370;28;20227;-78
2022/03/07 12:29:11;;;;;;;15.90;14.30;;;5.30;97.70;;;;;;4994631;28;20202;-78
2022/03/07 12:31:47;;;;;;;15.93;14.23;;;5.30;97.50;;;;;;4994557;28;20189;-79
2022/03/07 12:34:14;;;;;;;15.73;14.00;;;5.20;97.50;;;;;;4994442;28;20196;-79
2022/03/07 12:36:40;;;;;;;15.47;13.70;;;5.10;97.10;;;;;;4993718;28;20639;-77
2022/03/07 12:39:07;;;;;;;15.20;13.80;;;5.20;97.10;;;;;;4977164;28;20205;-78